createdAt,value
2023-04-20T00:01:26.857Z,5.47
2023-04-20T00:03:54.849Z,5.43
2023-04-20T00:06:22.489Z,8.20
2023-04-20T00:08:50.100Z,6.47
2023-04-20T00:11:17.579Z,9.93
2023-04-20T00:13:45.054Z,9.77
2023-04-20T00:16:12.584Z,10.02
2023-04-20T00:18:40.393Z,8.57
2023-04-20T00:21:07.958Z,9.40
2023-04-20T00:23:35.509Z,7.20
2023-04-20T00:26:03.203Z,9.30
2023-04-20T00:28:31.239Z,8.82
2023-04-20T00:30:58.900Z,6.78
2023-04-20T00:33:26.709Z,8.38
2023-04-20T00:35:54.422Z,8.27
2023-04-20T00:38:24.436Z,5.90
2023-04-20T00:40:54.166Z,6.07
2023-04-20T00:43:22.431Z,5.50
2023-04-20T00:45:54.769Z,8.40
2023-04-20T00:48:22.741Z,10.68
2023-04-20T00:50:50.850Z,6.63
2023-04-20T00:53:19.315Z,9.52
2023-04-20T00:55:47.293Z,7.28
2023-04-20T00:58:14.852Z,6.75
2023-04-20T01:00:42.557Z,6.45
2023-04-20T01:03:10.977Z,8.27
2023-04-20T01:05:39.076Z,7.82
2023-04-20T01:08:07.031Z,8.13
2023-04-20T01:10:34.692Z,5.78
2023-04-20T01:13:03.374Z,7.43
2023-04-20T01:15:30.962Z,6.00
2023-04-20T01:17:58.543Z,7.30
2023-04-20T01:20:26.165Z,6.38
2023-04-20T01:22:54.627Z,8.70
2023-04-20T01:25:22.291Z,7.07
2023-04-20T01:27:49.762Z,6.10
2023-04-20T01:30:17.398Z,9.93
2023-04-20T01:32:45.273Z,8.40
2023-04-20T01:35:13.057Z,9.25
2023-04-20T01:37:41.147Z,7.30
2023-04-20T01:40:10.555Z,10.20
2023-04-20T01:42:38.527Z,8.40
2023-04-20T01:45:06.972Z,7.05
2023-04-20T01:47:36.035Z,6.13
2023-04-20T01:50:03.758Z,5.78
2023-04-20T01:52:31.332Z,6.75
2023-04-20T01:54:58.873Z,5.00
2023-04-20T01:57:26.400Z,5.88
2023-04-20T01:59:54.267Z,6.85
2023-04-20T02:02:21.812Z,4.00
2023-04-20T02:04:49.389Z,5.57
2023-04-20T02:07:17.001Z,4.07
2023-04-20T02:09:44.638Z,4.22
2023-04-20T02:12:12.082Z,4.68
2023-04-20T02:14:40.475Z,4.38
2023-04-20T02:17:10.703Z,4.70
2023-04-20T02:19:38.552Z,5.50
2023-04-20T02:22:06.643Z,4.40
2023-04-20T02:24:34.185Z,3.90
2023-04-20T02:27:01.732Z,4.50
2023-04-20T02:29:29.298Z,4.13
2023-04-20T02:31:56.831Z,4.88
2023-04-20T02:34:25.047Z,5.43
2023-04-20T02:36:52.581Z,5.07
2023-04-20T02:39:20.341Z,5.93
2023-04-20T02:41:47.945Z,5.30
2023-04-20T02:44:15.463Z,3.83
2023-04-20T02:46:43.076Z,4.18
2023-04-20T02:49:11.111Z,4.88
2023-04-20T02:51:43.058Z,3.85
2023-04-20T02:54:10.619Z,6.05
2023-04-20T02:56:38.279Z,5.13
2023-04-20T02:59:09.506Z,5.03
2023-04-20T03:02:03.550Z,5.15
2023-04-20T03:04:32.236Z,4.88
2023-04-20T03:07:09.518Z,6.05
2023-04-20T03:09:39.156Z,4.57
2023-04-20T03:12:22.512Z,5.20
2023-04-20T03:15:12.577Z,4.53
2023-04-20T03:17:56.264Z,5.60
2023-04-20T03:20:24.273Z,5.85
2023-04-20T03:22:52.209Z,4.88
2023-04-20T03:25:22.836Z,6.88
2023-04-20T03:27:57.246Z,5.45
2023-04-20T03:30:25.508Z,4.38
2023-04-20T03:32:59.540Z,5.10
2023-04-20T03:35:27.357Z,5.30
2023-04-20T03:37:54.890Z,4.53
2023-04-20T03:40:22.652Z,4.55
2023-04-20T03:42:50.144Z,4.10
2023-04-20T03:45:17.729Z,4.50
2023-04-20T03:47:45.221Z,5.10
2023-04-20T03:50:12.802Z,5.30
2023-04-20T03:52:41.162Z,4.47
2023-04-20T03:55:10.741Z,4.60
2023-04-20T03:57:42.543Z,3.67
2023-04-20T04:00:12.405Z,3.63
2023-04-20T04:02:49.002Z,4.75
2023-04-20T04:05:25.221Z,4.35
2023-04-20T04:07:53.483Z,4.60
2023-04-20T04:10:21.041Z,4.10
2023-04-20T04:12:49.590Z,3.75
2023-04-20T04:15:19.498Z,3.92
2023-04-20T04:18:00.287Z,3.42
2023-04-20T04:20:31.555Z,4.35
2023-04-20T04:22:59.112Z,4.70
2023-04-20T04:25:33.819Z,4.30
2023-04-20T04:28:01.372Z,3.75
2023-04-20T04:30:31.267Z,4.90
2023-04-20T04:32:59.919Z,5.00
2023-04-20T04:35:30.555Z,4.35
2023-04-20T04:37:58.478Z,5.63
2023-04-20T04:40:26.188Z,5.07
2023-04-20T04:42:55.859Z,5.57
2023-04-20T04:45:25.384Z,7.38
2023-04-20T04:47:54.028Z,6.25
2023-04-20T04:50:22.418Z,5.13
2023-04-20T04:52:49.951Z,7.00
2023-04-20T04:55:17.577Z,5.78
2023-04-20T04:57:45.022Z,7.40
2023-04-20T05:00:13.057Z,7.32
2023-04-20T05:02:40.878Z,7.35
2023-04-20T05:05:09.989Z,5.25
2023-04-20T05:07:38.502Z,5.20
2023-04-20T05:10:07.632Z,6.57
2023-04-20T05:12:35.258Z,6.75
2023-04-20T05:15:02.923Z,7.88
2023-04-20T05:17:30.560Z,5.53
2023-04-20T05:19:58.220Z,8.02
2023-04-20T05:22:25.754Z,6.25
2023-04-20T05:24:53.329Z,6.40
2023-04-20T05:27:20.951Z,7.10
2023-04-20T05:29:48.572Z,5.00
2023-04-20T05:32:15.968Z,9.00
2023-04-20T05:34:43.502Z,5.65
2023-04-20T05:37:11.021Z,7.95
2023-04-20T05:39:38.600Z,6.47
2023-04-20T05:42:06.097Z,5.18
2023-04-20T05:44:34.069Z,6.53
2023-04-20T05:47:01.479Z,8.10
2023-04-20T05:49:28.937Z,5.88
2023-04-20T05:51:57.573Z,6.35
2023-04-20T05:54:26.732Z,7.07
2023-04-20T05:56:55.046Z,8.90
2023-04-20T05:59:22.891Z,7.07
2023-04-20T06:01:50.707Z,6.00
2023-04-20T06:04:18.939Z,6.60
2023-04-20T06:06:46.555Z,6.82
2023-04-20T06:09:14.311Z,6.25
2023-04-20T06:11:41.728Z,5.45
2023-04-20T06:14:12.017Z,6.20
2023-04-20T06:16:39.541Z,7.18
2023-04-20T06:19:07.129Z,6.72
2023-04-20T06:21:35.556Z,6.20
2023-04-20T06:24:03.112Z,6.57
2023-04-20T06:26:30.784Z,9.73
2023-04-20T06:28:58.275Z,7.50
2023-04-20T06:31:26.142Z,6.60
2023-04-20T06:33:53.683Z,6.38
2023-04-20T06:36:22.440Z,8.48
2023-04-20T06:38:49.953Z,6.57
2023-04-20T06:41:17.456Z,7.88
2023-04-20T06:43:45.838Z,7.70
2023-04-20T06:46:13.364Z,6.38
2023-04-20T06:48:40.828Z,6.57
2023-04-20T06:51:08.415Z,7.10
2023-04-20T06:53:36.009Z,7.65
2023-04-20T06:56:03.763Z,6.18
2023-04-20T06:58:31.776Z,7.85
2023-04-20T07:00:59.324Z,7.15
2023-04-20T07:03:26.964Z,8.68
2023-04-20T07:05:54.619Z,6.55
2023-04-20T07:08:22.376Z,8.65
2023-04-20T07:10:49.946Z,7.32
2023-04-20T07:13:17.509Z,8.35
2023-04-20T07:15:47.996Z,7.82
2023-04-20T07:18:15.796Z,6.10
2023-04-20T07:20:43.339Z,7.05
2023-04-20T07:23:11.063Z,6.95
2023-04-20T07:25:38.572Z,8.95
2023-04-20T07:28:06.098Z,6.50
2023-04-20T07:30:33.609Z,5.70
2023-04-20T07:33:01.208Z,6.88
2023-04-20T07:35:28.893Z,5.95
2023-04-20T07:37:56.455Z,5.55
2023-04-20T07:40:24.047Z,5.28
2023-04-20T07:42:51.623Z,5.05
2023-04-20T07:45:20.412Z,8.27
2023-04-20T07:47:51.413Z,5.28
2023-04-20T07:50:19.160Z,7.53
2023-04-20T07:52:47.134Z,6.18
2023-04-20T07:55:15.766Z,5.28
2023-04-20T07:57:43.309Z,6.10
2023-04-20T08:00:14.191Z,8.23
2023-04-20T08:02:42.022Z,7.50
2023-04-20T08:05:12.610Z,5.97
2023-04-20T08:07:40.813Z,5.22
2023-04-20T08:10:08.962Z,7.28
2023-04-20T08:12:36.719Z,5.45
2023-04-20T08:15:06.369Z,4.63
2023-04-20T08:17:34.407Z,6.15
2023-04-20T08:20:01.959Z,6.20
2023-04-20T08:22:30.484Z,4.47
2023-04-20T08:24:58.237Z,4.45
2023-04-20T08:27:26.317Z,5.35
2023-04-20T08:29:53.789Z,4.70
2023-04-20T08:32:23.890Z,3.97
2023-04-20T08:34:51.508Z,3.97
2023-04-20T08:37:19.612Z,5.30
2023-04-20T08:39:47.182Z,3.60
2023-04-20T08:42:15.967Z,4.97
2023-04-20T08:44:43.596Z,4.80
2023-04-20T08:47:14.263Z,4.75
2023-04-20T08:49:44.324Z,3.50
2023-04-20T08:52:12.475Z,3.42
2023-04-20T08:54:49.258Z,2.58
2023-04-20T08:57:23.284Z,2.38
2023-04-20T08:59:50.790Z,2.42
2023-04-20T09:02:18.305Z,2.08
2023-04-20T09:04:49.244Z,2.50
2023-04-20T09:07:19.923Z,2.60
2023-04-20T09:09:58.147Z,2.10
2023-04-20T09:12:25.964Z,1.95
2023-04-20T09:14:53.916Z,1.92
2023-04-20T09:17:39.400Z,1.50
2023-04-20T09:20:08.608Z,1.92
2023-04-20T09:22:37.903Z,1.73
2023-04-20T09:25:16.050Z,1.80
2023-04-20T09:27:43.636Z,2.67
2023-04-20T09:30:11.657Z,2.90
2023-04-20T09:32:39.255Z,2.85
2023-04-20T09:35:08.588Z,2.95
2023-04-20T09:37:36.388Z,3.00
2023-04-20T09:40:06.042Z,2.40
2023-04-20T09:42:39.796Z,2.72
2023-04-20T09:45:08.196Z,3.72
2023-04-20T09:47:37.317Z,3.22
2023-04-20T09:50:19.486Z,3.33
2023-04-20T09:52:53.406Z,4.55
2023-04-20T09:55:21.231Z,5.60
2023-04-20T09:57:50.727Z,6.30
2023-04-20T10:00:18.814Z,7.32
2023-04-20T10:02:49.546Z,5.90
2023-04-20T10:05:17.407Z,7.25
2023-04-20T10:07:45.245Z,6.85
2023-04-20T10:10:16.437Z,7.93
2023-04-20T10:12:54.510Z,5.82
2023-04-20T10:15:22.858Z,4.47
2023-04-20T10:17:51.341Z,4.22
2023-04-20T10:20:29.038Z,4.97
2023-04-20T10:23:09.679Z,3.85
2023-04-20T10:25:37.928Z,3.38
2023-04-20T10:28:09.695Z,3.85
2023-04-20T10:30:38.326Z,3.92
2023-04-20T10:33:09.998Z,3.25
2023-04-20T10:35:46.013Z,3.80
2023-04-20T10:38:14.126Z,3.58
2023-04-20T10:40:42.019Z,3.38
2023-04-20T10:43:21.431Z,3.28
2023-04-20T10:45:50.324Z,3.45
2023-04-20T10:48:18.404Z,4.03
2023-04-20T10:50:46.196Z,3.53
2023-04-20T10:53:22.057Z,4.07
2023-04-20T10:56:00.185Z,4.00
2023-04-20T10:58:28.038Z,4.47
2023-04-20T11:01:03.451Z,4.40
2023-04-20T11:03:32.449Z,4.60
2023-04-20T11:06:04.237Z,4.10
2023-04-20T11:08:38.992Z,4.60
2023-04-20T11:11:17.297Z,4.57
2023-04-20T11:13:44.835Z,3.95
2023-04-20T11:16:17.078Z,3.97
2023-04-20T11:18:55.197Z,4.68
2023-04-20T11:21:22.964Z,4.40
2023-04-20T11:23:50.792Z,4.13
2023-04-20T11:26:18.901Z,4.20
2023-04-20T11:28:55.994Z,3.80
2023-04-20T11:31:24.285Z,4.38
2023-04-20T11:33:51.948Z,4.05
2023-04-20T11:36:24.072Z,4.18
2023-04-20T11:38:51.618Z,3.40
2023-04-20T11:41:21.543Z,3.92
2023-04-20T11:43:49.962Z,3.38
2023-04-20T11:46:19.433Z,3.42
2023-04-20T11:48:48.083Z,3.60
2023-04-20T11:51:16.103Z,3.58
2023-04-20T11:53:43.726Z,3.50
2023-04-20T11:56:12.467Z,3.67
2023-04-20T11:58:40.025Z,3.72
2023-04-20T12:01:07.535Z,3.20
2023-04-20T12:03:35.205Z,3.17
2023-04-20T12:06:03.079Z,3.22
2023-04-20T12:08:31.837Z,3.22
2023-04-20T12:10:59.329Z,3.45
2023-04-20T12:13:26.876Z,3.03
2023-04-20T12:15:54.441Z,3.20
2023-04-20T12:18:22.128Z,3.10
2023-04-20T12:20:50.317Z,3.10
2023-04-20T12:23:17.853Z,3.33
2023-04-20T12:25:45.624Z,2.78
2023-04-20T12:28:13.506Z,3.33
2023-04-20T12:30:41.268Z,2.50
2023-04-20T12:33:08.870Z,3.15
2023-04-20T12:35:36.480Z,2.42
2023-04-20T12:38:04.155Z,2.97
2023-04-20T12:40:31.797Z,2.45
2023-04-20T12:42:59.723Z,2.30
2023-04-20T12:45:27.368Z,2.47
2023-04-20T12:47:56.666Z,2.33
2023-04-20T12:50:26.095Z,2.40
2023-04-20T12:52:56.113Z,2.10
2023-04-20T12:55:24.140Z,1.88
2023-04-20T12:57:51.725Z,2.20
2023-04-20T13:00:19.719Z,2.33
2023-04-20T13:02:47.525Z,2.15
2023-04-20T13:05:15.998Z,2.67
2023-04-20T13:07:43.514Z,2.50
2023-04-20T13:10:11.621Z,2.30
2023-04-20T13:12:39.074Z,2.35
2023-04-20T13:15:13.103Z,2.20
2023-04-20T13:17:41.461Z,1.95
2023-04-20T13:20:09.580Z,2.10
2023-04-20T13:22:50.404Z,2.30
2023-04-20T13:25:23.132Z,2.33
2023-04-20T13:27:50.794Z,1.80
2023-04-20T13:30:18.414Z,2.00
2023-04-20T13:32:46.101Z,2.35
2023-04-20T13:35:14.873Z,2.03
2023-04-20T13:37:44.307Z,2.05
2023-04-20T13:40:12.464Z,1.73
2023-04-20T13:42:39.996Z,1.85
2023-04-20T13:45:08.200Z,2.20
2023-04-20T13:47:37.144Z,2.33
2023-04-20T13:50:05.463Z,2.30
2023-04-20T13:52:33.219Z,2.60
2023-04-20T13:55:00.684Z,1.85
2023-04-20T13:57:28.184Z,2.20
2023-04-20T13:59:55.734Z,1.92
2023-04-20T14:02:24.986Z,1.92
2023-04-20T14:04:52.838Z,2.20
2023-04-20T14:07:20.353Z,2.30
2023-04-20T14:09:47.856Z,2.10
2023-04-20T14:12:16.544Z,1.88
2023-04-20T14:14:44.207Z,1.98
2023-04-20T14:17:11.783Z,2.28
2023-04-20T14:19:39.321Z,2.15
2023-04-20T14:22:06.879Z,2.00
2023-04-20T14:24:34.571Z,1.98
2023-04-20T14:27:02.128Z,1.75
2023-04-20T14:29:29.658Z,1.80
2023-04-20T14:31:57.354Z,1.98
2023-04-20T14:34:25.004Z,1.70
2023-04-20T14:36:52.489Z,1.63
2023-04-20T14:39:26.495Z,1.80
2023-04-20T14:41:54.108Z,1.92
2023-04-20T14:44:21.721Z,1.73
2023-04-20T14:46:49.537Z,2.17
2023-04-20T14:49:16.999Z,2.38
2023-04-20T14:51:44.705Z,2.00
2023-04-20T14:54:12.220Z,2.00
2023-04-20T14:56:39.958Z,2.10
2023-04-20T14:59:07.793Z,1.70
2023-04-20T15:01:35.622Z,2.25
2023-04-20T15:04:03.224Z,2.33
2023-04-20T15:06:32.136Z,2.17
2023-04-20T15:08:59.707Z,2.00
2023-04-20T15:11:27.212Z,2.05
2023-04-20T15:13:54.947Z,1.60
2023-04-20T15:16:22.617Z,2.08
2023-04-20T15:18:52.310Z,1.80
2023-04-20T15:21:21.886Z,1.90
2023-04-20T15:23:50.536Z,2.22
2023-04-20T15:26:18.177Z,2.30
2023-04-20T15:28:45.849Z,1.92
2023-04-20T15:31:17.314Z,2.22
2023-04-20T15:33:48.036Z,2.00
2023-04-20T15:36:18.416Z,1.90
2023-04-20T15:38:46.263Z,2.05
2023-04-20T15:41:13.936Z,2.38
2023-04-20T15:43:42.906Z,1.33
2023-04-20T15:46:11.036Z,1.50
2023-04-20T15:48:38.671Z,1.50
2023-04-20T15:51:06.416Z,1.80
2023-04-20T15:53:33.908Z,2.35
2023-04-20T15:56:01.508Z,1.88
2023-04-20T15:58:28.997Z,1.95
2023-04-20T16:00:56.524Z,2.05
2023-04-20T16:03:24.170Z,1.92
2023-04-20T16:05:52.095Z,1.55
2023-04-20T16:08:21.130Z,1.95
2023-04-20T16:10:48.772Z,2.00
2023-04-20T16:13:16.216Z,1.60
2023-04-20T16:15:43.748Z,1.80
2023-04-20T16:18:11.206Z,1.40
2023-04-20T16:20:40.063Z,2.00
2023-04-20T16:23:09.192Z,1.88
2023-04-20T16:25:38.499Z,1.70
2023-04-20T16:28:06.298Z,2.05
2023-04-20T16:30:33.770Z,1.50
2023-04-20T16:33:01.380Z,1.70
2023-04-20T16:35:29.394Z,1.90
2023-04-20T16:37:57.108Z,1.75
2023-04-20T16:40:26.263Z,1.50
2023-04-20T16:42:53.869Z,1.60
2023-04-20T16:45:21.413Z,1.58
2023-04-20T16:47:49.088Z,1.55
2023-04-20T16:50:19.722Z,1.63
2023-04-20T16:52:48.326Z,1.60
2023-04-20T16:55:16.009Z,1.98
2023-04-20T16:57:43.525Z,1.35
2023-04-20T17:00:11.815Z,1.40
2023-04-20T17:02:39.602Z,1.80
2023-04-20T17:05:07.699Z,2.00
2023-04-20T17:07:36.467Z,2.17
2023-04-20T17:10:05.428Z,2.20
2023-04-20T17:12:32.917Z,1.80
2023-04-20T17:15:00.948Z,1.75
2023-04-20T17:17:28.668Z,1.85
2023-04-20T17:19:56.214Z,2.08
2023-04-20T17:22:25.893Z,2.08
2023-04-20T17:24:54.356Z,1.85
2023-04-20T17:27:23.109Z,1.75
2023-04-20T17:29:51.729Z,1.65
2023-04-20T17:32:19.445Z,1.80
2023-04-20T17:34:48.754Z,1.60
2023-04-20T17:37:16.311Z,2.35
2023-04-20T17:39:44.010Z,3.42
2023-04-20T17:42:12.839Z,3.17
2023-04-20T17:44:40.618Z,2.50
2023-04-20T17:47:09.623Z,6.22
2023-04-20T17:49:37.203Z,4.50
2023-04-20T17:52:04.980Z,3.40
2023-04-20T17:54:34.021Z,2.47
2023-04-20T17:57:01.835Z,2.00
2023-04-20T17:59:30.818Z,1.60
2023-04-20T18:01:59.022Z,1.60
2023-04-20T18:04:26.994Z,1.95
2023-04-20T18:06:54.768Z,1.83
2023-04-20T18:09:22.412Z,2.15
2023-04-20T18:11:49.939Z,1.60
2023-04-20T18:14:17.770Z,1.73
2023-04-20T18:16:46.133Z,1.50
2023-04-20T18:19:13.716Z,1.50
2023-04-20T18:21:41.213Z,1.63
2023-04-20T18:24:09.684Z,1.50
2023-04-20T18:26:37.873Z,2.10
2023-04-20T18:29:05.416Z,2.10
2023-04-20T18:31:33.264Z,1.60
2023-04-20T18:34:00.894Z,1.73
2023-04-20T18:36:29.733Z,1.80
2023-04-20T18:38:57.507Z,1.95
2023-04-20T18:41:25.805Z,1.85
2023-04-20T18:43:54.128Z,2.20
2023-04-20T18:46:23.258Z,1.63
2023-04-20T18:48:53.676Z,2.05
2023-04-20T18:51:21.917Z,2.03
2023-04-20T18:53:49.444Z,2.40
2023-04-20T18:56:17.004Z,2.60
2023-04-20T18:58:44.621Z,2.42
2023-04-20T19:01:12.173Z,2.63
2023-04-20T19:03:39.877Z,2.70
2023-04-20T19:06:07.362Z,2.20
2023-04-20T19:08:35.212Z,2.13
2023-04-20T19:11:02.690Z,2.60
2023-04-20T19:13:30.302Z,2.20
2023-04-20T19:15:57.884Z,2.60
2023-04-20T19:18:27.267Z,2.00
2023-04-20T19:20:55.167Z,2.00
2023-04-20T19:23:22.710Z,1.60
2023-04-20T19:25:50.354Z,1.65
2023-04-20T19:28:17.881Z,1.80
2023-04-20T19:30:45.551Z,2.17
2023-04-20T19:33:13.157Z,2.05
2023-04-20T19:35:42.298Z,2.28
2023-04-20T19:38:09.884Z,2.45
2023-04-20T19:40:37.477Z,2.00
2023-04-20T19:43:04.924Z,1.88
2023-04-20T19:45:32.351Z,1.98
2023-04-20T19:47:59.894Z,2.13
2023-04-20T19:50:27.510Z,2.17
2023-04-20T19:52:55.478Z,2.22
2023-04-20T19:55:23.108Z,2.20
2023-04-20T19:57:51.410Z,2.13
2023-04-20T20:00:19.038Z,2.83
2023-04-20T20:02:46.856Z,3.25
2023-04-20T20:05:14.489Z,2.58
2023-04-20T20:07:42.190Z,2.67
2023-04-20T20:10:09.873Z,3.15
2023-04-20T20:12:37.717Z,2.67
2023-04-20T20:15:05.650Z,2.55
2023-04-20T20:17:33.270Z,2.42
2023-04-20T20:20:01.996Z,2.53
2023-04-20T20:22:29.613Z,2.40
2023-04-20T20:24:57.413Z,2.60
2023-04-20T20:27:25.765Z,2.47
2023-04-20T20:29:54.047Z,2.85
2023-04-20T20:32:22.233Z,2.72
2023-04-20T20:34:49.847Z,2.58
2023-04-20T20:37:17.332Z,3.28
2023-04-20T20:39:44.775Z,2.88
2023-04-20T20:42:12.606Z,2.97
2023-04-20T20:44:40.197Z,3.17
2023-04-20T20:47:07.717Z,2.63
2023-04-20T20:49:35.441Z,2.33
2023-04-20T20:52:02.897Z,2.63
2023-04-20T20:54:30.435Z,3.15
2023-04-20T20:56:57.914Z,3.20
2023-04-20T20:59:25.453Z,3.28
2023-04-20T21:01:53.044Z,3.22
2023-04-20T21:04:20.790Z,2.50
2023-04-20T21:06:48.820Z,3.33
2023-04-20T21:09:16.922Z,3.10
2023-04-20T21:11:44.666Z,2.88
2023-04-20T21:14:12.201Z,2.83
2023-04-20T21:16:40.053Z,3.10
2023-04-20T21:19:07.541Z,2.63
2023-04-20T21:21:35.102Z,3.00
2023-04-20T21:24:02.642Z,2.97
2023-04-20T21:26:35.729Z,2.65
2023-04-20T21:29:03.912Z,2.35
2023-04-20T21:31:32.392Z,2.97
2023-04-20T21:34:00.523Z,2.45
2023-04-20T21:36:28.011Z,2.55
2023-04-20T21:38:55.791Z,2.15
2023-04-20T21:41:23.451Z,2.33
2023-04-20T21:43:53.118Z,2.50
2023-04-20T21:46:20.622Z,2.10
2023-04-20T21:48:48.339Z,1.80
2023-04-20T21:51:16.653Z,2.53
2023-04-20T21:53:44.733Z,2.10
2023-04-20T21:56:12.690Z,2.33
2023-04-20T21:58:40.330Z,2.90
2023-04-20T22:01:07.912Z,2.72
2023-04-20T22:03:37.387Z,2.55
2023-04-20T22:06:06.585Z,2.45
2023-04-20T22:08:34.736Z,2.63
2023-04-20T22:11:02.268Z,2.60
2023-04-20T22:13:29.757Z,2.20
2023-04-20T22:15:57.376Z,2.33
2023-04-20T22:18:24.917Z,2.72
2023-04-20T22:20:52.577Z,2.30
2023-04-20T22:23:20.160Z,2.33
2023-04-20T22:25:47.914Z,2.15
2023-04-20T22:28:16.073Z,2.20
2023-04-20T22:30:43.598Z,2.13
2023-04-20T22:33:11.191Z,1.73
2023-04-20T22:35:38.753Z,2.22
2023-04-20T22:38:06.416Z,2.30
2023-04-20T22:40:33.872Z,2.40
2023-04-20T22:43:01.344Z,2.30
2023-04-20T22:45:28.886Z,2.10
2023-04-20T22:47:56.347Z,2.67
2023-04-20T22:50:23.991Z,3.03
2023-04-20T22:52:51.560Z,2.35
2023-04-20T22:55:19.145Z,2.50
2023-04-20T22:57:46.857Z,2.20
2023-04-20T23:00:14.970Z,2.90
2023-04-20T23:02:42.609Z,2.60
2023-04-20T23:05:10.726Z,2.40
2023-04-20T23:07:39.485Z,2.10
2023-04-20T23:10:07.856Z,2.22
2023-04-20T23:12:35.355Z,2.22
2023-04-20T23:15:03.794Z,2.72
2023-04-20T23:17:32.373Z,2.95
2023-04-20T23:19:59.907Z,3.40
2023-04-20T23:22:28.027Z,3.63
2023-04-20T23:24:57.481Z,2.90
2023-04-20T23:27:25.054Z,4.20
2023-04-20T23:29:52.492Z,4.00
2023-04-20T23:32:20.008Z,4.30
2023-04-20T23:34:47.591Z,4.05
2023-04-20T23:37:15.018Z,3.80
2023-04-20T23:39:42.556Z,3.72
2023-04-20T23:42:10.112Z,3.55
2023-04-20T23:44:37.625Z,4.20
2023-04-20T23:47:05.207Z,5.25
2023-04-20T23:49:32.788Z,3.75
2023-04-20T23:52:00.213Z,3.42
2023-04-20T23:54:27.700Z,4.03
2023-04-20T23:56:55.769Z,5.93
2023-04-20T23:59:23.258Z,5.18
